Wind From: 11-12-2017 04:25 Until: 16:00 warning for: Wind Level: Orange info button

Power and phone distribution networks may be disrupted for relatively long periods., Roofs and chimneys can be damaged. , Tree branches may break. , Vehicles can be deported. , Traffic may be disrupted, particularly on secondary roads in forest areas. Limit your trips. , Limit your speed in highway driving, especially if you drive a vehicle or hitch sensitive to wind. , Do not go for walks in forests or along the coast., In town, be vigilant against possible falling objects., Do not work on roofs and do not touch any electrical line fallen on the ground., Store or secure sensitive objects to wind or likely to be damaged., Always install power generators outside buildings. 


Meteo18 Weather Cam more information Meteo18 Weather Cam


Thunder radar more information blitzortung!


Rain radar more information rain snow radar


Visit our other weather sites:

Template documentation
and downloads

And another site



Weather Underground History page Text

Daily Summary for March 9, 2017 Units:  English    Metric   Both
« Previous Day
Next Day »
Daily Weekly Monthly Yearly Custom
  High: Low: Average:
Temperature: 57 °F 48.7 °F 52.5 °F
Dew Point: 49.8 °F 46 °F 48.6 °F
Humidity: 96 % 69 % 87 %
Wind Speed: 20 mph 0 mph 5.8 mph
Wind Gust: 23 mph - -
Wind:- - WSW
Pressure: 30.4 in 30.3 in -
Precipitation: 0 in    
Historical Graphs
 
 
Tabular Data for March 9, 2017
Time Temperature Dew Point Pressure Wind Wind Speed Wind Gust Humidity Rainfall Rate (Hourly)
00:02 51.3 °F 49.8 °F 30.3 in WNW 13 mph 15 mph 95 % 0 in
00:07 51.1 °F 49.6 °F 30.3 in West 10 mph 16 mph 95 % 0 in
00:12 51.1 °F 49.6 °F 30.3 in WNW 7 mph 17 mph 95 % 0 in
00:17 51.1 °F 49.6 °F 30.3 in WSW 6 mph 17 mph 95 % 0 in
00:22 51.1 °F 49.6 °F 30.3 in West 12 mph 17 mph 95 % 0 in
00:27 51.1 °F 49.6 °F 30.3 in West 11 mph 15 mph 95 % 0 in
00:32 50.9 °F 49.5 °F 30.3 in SW 8 mph 15 mph 95 % 0 in
00:37 50.9 °F 49.5 °F 30.3 in West 15 mph 16 mph 95 % 0 in
00:42 51.1 °F 49.6 °F 30.3 in West 6 mph 20 mph 95 % 0 in
00:47 51.1 °F 49.6 °F 30.3 in WSW 12 mph 20 mph 95 % 0 in
00:52 50.9 °F 49.5 °F 30.3 in West 9 mph 20 mph 95 % 0 in
00:57 50.9 °F 49.5 °F 30.3 in West 8 mph 19 mph 95 % 0 in
01:02 50.9 °F 49.5 °F 30.3 in West 8 mph 16 mph 95 % 0 in
01:07 50.7 °F 49.6 °F 30.3 in WNW 16 mph 16 mph 96 % 0 in
01:12 50.9 °F 49.8 °F 30.3 in WSW 16 mph 21 mph 96 % 0 in
01:17 50.9 °F 49.5 °F 30.3 in WSW 12 mph 22 mph 95 % 0 in
01:22 50.9 °F 49.5 °F 30.3 in WSW 12 mph 22 mph 95 % 0 in
01:27 50.9 °F 49.5 °F 30.3 in West 9 mph 22 mph 95 % 0 in
01:32 50.9 °F 49.5 °F 30.3 in WSW 10 mph 19 mph 95 % 0 in
01:37 50.7 °F 49.3 °F 30.3 in WSW 12 mph 17 mph 95 % 0 in
01:42 50.9 °F 49.5 °F 30.3 in WSW 17 mph 18 mph 95 % 0 in
01:52 50.9 °F 49.5 °F 30.3 in SW 10 mph 21 mph 95 % 0 in
01:57 50.9 °F 49.5 °F 30.3 in WSW 9 mph 21 mph 95 % 0 in
02:02 50.7 °F 49.3 °F 30.3 in West 14 mph 19 mph 95 % 0 in
02:07 50.9 °F 49.5 °F 30.3 in WSW 9 mph 19 mph 95 % 0 in
02:12 50.7 °F 49.3 °F 30.3 in WNW 10 mph 18 mph 95 % 0 in
02:17 50.7 °F 49.3 °F 30.3 in SSW 9 mph 18 mph 95 % 0 in
02:22 50.7 °F 49.3 °F 30.3 in WSW 6 mph 17 mph 95 % 0 in
02:27 50.7 °F 49.3 °F 30.3 in West 16 mph 17 mph 95 % 0 in
02:32 50.7 °F 49.3 °F 30.3 in West 6 mph 18 mph 95 % 0 in
02:42 50.5 °F 49.1 °F 30.3 in West 12 mph 18 mph 95 % 0 in
02:47 50.5 °F 49.1 °F 30.3 in West 10 mph 18 mph 95 % 0 in
02:52 50.5 °F 49.5 °F 30.3 in West 9 mph 18 mph 96 % 0 in
02:57 50.5 °F 49.5 °F 30.3 in West 7 mph 18 mph 96 % 0 in
03:02 50.5 °F 49.5 °F 30.3 in WSW 6 mph 17 mph 96 % 0 in
03:07 50.4 °F 49.3 °F 30.3 in WSW 10 mph 17 mph 96 % 0 in
03:12 50.4 °F 49.3 °F 30.3 in WSW 5 mph 16 mph 96 % 0 in
03:17 50.4 °F 49.3 °F 30.3 in SW 7 mph 18 mph 96 % 0 in
03:22 50.4 °F 49.3 °F 30.3 in West 6 mph 18 mph 96 % 0 in
03:27 50.4 °F 49.3 °F 30.3 in WSW 3 mph 18 mph 96 % 0 in
03:32 50.4 °F 49.3 °F 30.3 in West 7 mph 12 mph 96 % 0 in
03:42 50.4 °F 49.3 °F 30.3 in WSW 8 mph 12 mph 96 % 0 in
03:47 50.4 °F 49.3 °F 30.3 in WSW 10 mph 12 mph 96 % 0 in
03:52 50.4 °F 49.3 °F 30.3 in West 9 mph 11 mph 96 % 0 in
03:57 50.4 °F 49.3 °F 30.3 in West 6 mph 12 mph 96 % 0 in
04:02 50.4 °F 49.3 °F 30.3 in WSW 5 mph 16 mph 96 % 0 in
04:07 50.4 °F 49.3 °F 30.3 in West 9 mph 16 mph 96 % 0 in
04:12 50.2 °F 49.1 °F 30.3 in WSW 8 mph 18 mph 96 % 0 in
04:17 50.2 °F 49.1 °F 30.3 in WSW 7 mph 18 mph 96 % 0 in
04:22 50.2 °F 49.1 °F 30.3 in West 4 mph 11 mph 96 % 0 in
04:27 50.2 °F 49.1 °F 30.3 in WSW 10 mph 11 mph 96 % 0 in
04:32 50.2 °F 49.1 °F 30.3 in Calm   14 mph 96 % 0 in
04:37 50.2 °F 49.1 °F 30.3 in West 2 mph 15 mph 96 % 0 in
04:42 50.2 °F 49.1 °F 30.3 in WSW 1 mph 15 mph 96 % 0 in
04:47 50 °F 48.9 °F 30.3 in West 5 mph 15 mph 96 % 0 in
04:52 50 °F 48.9 °F 30.3 in West 5 mph 15 mph 96 % 0 in
04:57 49.8 °F 48.7 °F 30.3 in SW 3 mph 13 mph 96 % 0 in
05:02 49.8 °F 48.7 °F 30.3 in SW 3 mph 13 mph 96 % 0 in
05:07 49.8 °F 48.7 °F 30.3 in WSW 6 mph 13 mph 96 % 0 in
05:12 49.8 °F 48.7 °F 30.3 in SW 10 mph 13 mph 96 % 0 in
05:17 49.6 °F 48.6 °F 30.3 in SSW 4 mph 12 mph 96 % 0 in
05:22 49.6 °F 48.6 °F 30.3 in WSW 3 mph 12 mph 96 % 0 in
05:27 49.6 °F 48.6 °F 30.3 in WNW 11 mph 12 mph 96 % 0 in
05:32 49.6 °F 48.6 °F 30.3 in SW 5 mph 12 mph 96 % 0 in
05:37 49.5 °F 48.4 °F 30.3 in SW 8 mph 13 mph 96 % 0 in
05:42 49.5 °F 48.4 °F 30.3 in West 4 mph 13 mph 96 % 0 in
05:47 49.5 °F 48.4 °F 30.3 in WSW 8 mph 13 mph 96 % 0 in
05:52 49.5 °F 48.4 °F 30.3 in West 5 mph 13 mph 96 % 0 in
05:57 49.5 °F 48.4 °F 30.3 in WSW 8 mph 16 mph 96 % 0 in
06:02 49.5 °F 48 °F 30.3 in WSW 11 mph 16 mph 95 % 0 in
06:07 49.5 °F 48 °F 30.3 in WSW 9 mph 12 mph 95 % 0 in
06:12 49.6 °F 48 °F 30.3 in SW 9 mph 12 mph 94 % 0 in
06:17 49.5 °F 47.8 °F 30.3 in SW 9 mph 14 mph 94 % 0 in
06:22 49.6 °F 48 °F 30.3 in SW 6 mph 14 mph 94 % 0 in
06:32 49.5 °F 47.8 °F 30.3 in WSW 10 mph 15 mph 94 % 0 in
06:42 49.5 °F 47.8 °F 30.3 in SW 6 mph 15 mph 94 % 0 in
06:52 49.5 °F 47.8 °F 30.3 in SW 3 mph 12 mph 94 % 0 in
07:02 49.3 °F 47.7 °F 30.3 in SW 4 mph 10 mph 94 % 0 in
07:07 49.3 °F 47.7 °F 30.3 in SSW 2 mph 12 mph 94 % 0 in
07:12 49.3 °F 47.7 °F 30.3 in SSW 7 mph 12 mph 94 % 0 in
07:17 49.3 °F 47.3 °F 30.3 in WSW 5 mph 15 mph 93 % 0 in
07:22 49.3 °F 47.3 °F 30.3 in SW 6 mph 15 mph 93 % 0 in
07:32 49.3 °F 47.3 °F 30.3 in SW 5 mph 15 mph 93 % 0 in
07:37 49.1 °F 47.1 °F 30.3 in SSW 5 mph 11 mph 93 % 0 in
07:42 49.1 °F 47.1 °F 30.3 in SW 10 mph 11 mph 93 % 0 in
07:47 49.1 °F 47.1 °F 30.3 in SSW 8 mph 12 mph 93 % 0 in
07:57 48.9 °F 46.9 °F 30.3 in SW 8 mph 12 mph 93 % 0 in
08:02 48.9 °F 46.9 °F 30.3 in SW 9 mph 12 mph 93 % 0 in
08:07 48.9 °F 46.9 °F 30.3 in SW 6 mph 12 mph 93 % 0 in
08:12 48.9 °F 46.9 °F 30.3 in SW 6 mph 12 mph 93 % 0 in
08:17 48.9 °F 46.9 °F 30.3 in SW 9 mph 12 mph 93 % 0 in
08:22 48.9 °F 46.9 °F 30.3 in SSW 6 mph 12 mph 93 % 0 in
08:27 48.9 °F 46.9 °F 30.3 in SW 7 mph 12 mph 93 % 0 in
08:32 48.9 °F 46.9 °F 30.3 in SW 7 mph 12 mph 93 % 0 in
08:37 48.9 °F 46.9 °F 30.3 in SSW 5 mph 12 mph 93 % 0 in
08:42 48.9 °F 46.9 °F 30.3 in West 3 mph 12 mph 93 % 0 in
08:47 48.7 °F 47.1 °F 30.3 in SW 2 mph 11 mph 94 % 0 in
08:52 48.7 °F 47.1 °F 30.3 in SW 4 mph 11 mph 94 % 0 in
08:57 48.7 °F 47.1 °F 30.3 in SW 2 mph 8 mph 94 % 0 in
09:02 48.7 °F 47.1 °F 30.3 in SSW 4 mph 8 mph 94 % 0 in
09:12 48.7 °F 47.3 °F 30.3 in SW 4 mph 9 mph 95 % 0 in
09:17 48.7 °F 47.3 °F 30.3 in WSW 2 mph 9 mph 95 % 0 in
09:22 48.7 °F 47.1 °F 30.3 in SW 7 mph 9 mph 94 % 0 in
09:27 48.9 °F 47.3 °F 30.3 in SSW 6 mph 9 mph 94 % 0 in
09:32 48.9 °F 47.3 °F 30.3 in SW 5 mph 9 mph 94 % 0 in
09:37 48.9 °F 47.3 °F 30.3 in SW 5 mph 9 mph 94 % 0 in
09:42 48.9 °F 47.3 °F 30.3 in SW 4 mph 9 mph 94 % 0 in
09:47 49.1 °F 47.5 °F 30.3 in West 7 mph 10 mph 94 % 0 in
09:52 49.1 °F 47.5 °F 30.3 in West 5 mph 10 mph 94 % 0 in
09:57 49.1 °F 47.1 °F 30.3 in WSW 9 mph 13 mph 93 % 0 in
10:02 49.3 °F 47.3 °F 30.3 in West 2 mph 13 mph 93 % 0 in
10:12 49.5 °F 47.5 °F 30.3 in WSW 5 mph 11 mph 93 % 0 in
10:17 49.5 °F 47.5 °F 30.3 in SW 2 mph 10 mph 93 % 0 in
10:27 49.8 °F 47.7 °F 30.3 in WSW 6 mph 11 mph 92 % 0 in
10:32 50.2 °F 48 °F 30.3 in WNW 7 mph 11 mph 92 % 0 in
10:37 50.4 °F 48.2 °F 30.3 in WSW 5 mph 12 mph 92 % 0 in
10:42 50.4 °F 47.8 °F 30.3 in WSW 13 mph 13 mph 91 % 0 in
10:47 50.5 °F 48.4 °F 30.3 in WSW 8 mph 18 mph 92 % 0 in
10:52 50.7 °F 48.2 °F 30.3 in SSW 4 mph 18 mph 91 % 0 in
10:57 50.9 °F 48 °F 30.3 in WSW 8 mph 18 mph 90 % 0 in
11:02 51.1 °F 48.2 °F 30.3 in WSW 9 mph 15 mph 90 % 0 in
11:12 51.4 °F 48.6 °F 30.3 in WSW 10 mph 15 mph 90 % 0 in
11:17 51.6 °F 48.6 °F 30.3 in SW 7 mph 15 mph 89 % 0 in
11:22 51.6 °F 48.2 °F 30.3 in SW 7 mph 16 mph 88 % 0 in
11:27 52.2 °F 48.7 °F 30.3 in SW 6 mph 18 mph 88 % 0 in
11:32 52.3 °F 48.6 °F 30.3 in WSW 9 mph 18 mph 87 % 0 in
11:37 52.9 °F 49.1 °F 30.3 in SW 4 mph 18 mph 87 % 0 in
11:42 52.9 °F 48.7 °F 30.3 in West 13 mph 14 mph 86 % 0 in
11:47 52.9 °F 48.2 °F 30.3 in WSW 11 mph 18 mph 84 % 0 in
11:52 53.1 °F 48.4 °F 30.3 in NW 6 mph 18 mph 84 % 0 in
11:57 53.2 °F 48.2 °F 30.3 in West 15 mph 19 mph 83 % 0 in
12:02 53.2 °F 47.8 °F 30.3 in West 13 mph 22 mph 82 % 0 in
12:07 53.6 °F 48.2 °F 30.3 in WSW 12 mph 22 mph 82 % 0 in
12:12 53.8 °F 48 °F 30.3 in West 11 mph 21 mph 81 % 0 in
12:17 54 °F 48.9 °F 30.3 in WSW 8 mph 22 mph 83 % 0 in
12:22 54.3 °F 48.6 °F 30.3 in West 15 mph 22 mph 81 % 0 in
12:27 54.3 °F 48.6 °F 30.3 in SW 10 mph 23 mph 81 % 0 in
12:32 54.3 °F 48.2 °F 30.3 in SW 11 mph 23 mph 80 % 0 in
12:37 54.9 °F 49.1 °F 30.3 in West 17 mph 23 mph 81 % 0 in
12:42 54.7 °F 48.4 °F 30.3 in WSW 20 mph 22 mph 79 % 0 in
12:47 54.7 °F 48.6 °F 30.3 in West 14 mph 23 mph 80 % 0 in
12:52 54.7 °F 48.9 °F 30.3 in West 8 mph 23 mph 81 % 0 in
12:57 54.5 °F 48.4 °F 30.3 in West 14 mph 23 mph 80 % 0 in
13:02 54.5 °F 48.4 °F 30.3 in West 4 mph 20 mph 80 % 0 in
13:12 54.9 °F 48.2 °F 30.3 in West 6 mph 17 mph 78 % 0 in
13:17 55 °F 48.4 °F 30.3 in SSW 8 mph 15 mph 78 % 0 in
13:22 54.9 °F 47.5 °F 30.3 in WSW 10 mph 14 mph 76 % 0 in
13:27 55 °F 48.4 °F 30.3 in SW 8 mph 16 mph 78 % 0 in
13:32 55.2 °F 47.8 °F 30.3 in West 5 mph 16 mph 76 % 0 in
13:37 55.4 °F 48.4 °F 30.3 in WSW 5 mph 16 mph 77 % 0 in
13:42 55.8 °F 48.4 °F 30.3 in West 5 mph 15 mph 76 % 0 in
13:47 55.8 °F 48 °F 30.3 in WSW 8 mph 15 mph 75 % 0 in
13:52 55.8 °F 48.4 °F 30.3 in West 13 mph 17 mph 76 % 0 in
13:57 55.6 °F 47.5 °F 30.3 in West 9 mph 17 mph 74 % 0 in
14:02 55.8 °F 48 °F 30.3 in SW 5 mph 14 mph 75 % 0 in
14:12 56.1 °F 47.7 °F 30.3 in WSW 11 mph 14 mph 73 % 0 in
14:17 56.1 °F 48 °F 30.3 in WSW 10 mph 16 mph 74 % 0 in
14:22 56.5 °F 48.4 °F 30.3 in WSW 6 mph 16 mph 74 % 0 in
14:27 56.3 °F 47.5 °F 30.3 in West 9 mph 16 mph 72 % 0 in
14:32 56.5 °F 47.5 °F 30.3 in West 7 mph 16 mph 72 % 0 in
14:37 56.7 °F 48 °F 30.3 in SW 7 mph 16 mph 73 % 0 in
14:42 56.5 °F 47.1 °F 30.3 in West 10 mph 15 mph 71 % 0 in
14:47 56.1 °F 46 °F 30.3 in WSW 7 mph 15 mph 69 % 0 in
14:52 55.9 °F 46.2 °F 30.3 in West 9 mph 17 mph 70 % 0 in
14:57 56.1 °F 46.4 °F 30.3 in West 7 mph 17 mph 70 % 0 in
15:02 56.3 °F 47.5 °F 30.3 in SW 7 mph 17 mph 72 % 0 in
15:12 56.5 °F 46.8 °F 30.3 in SSW 10 mph 13 mph 70 % 0 in
15:17 56.5 °F 47.1 °F 30.3 in SW 5 mph 13 mph 71 % 0 in
15:22 56.7 °F 46.9 °F 30.3 in West 6 mph 12 mph 70 % 0 in
15:32 56.8 °F 47.5 °F 30.3 in WSW 5 mph 12 mph 71 % 0 in
15:37 56.8 °F 46.8 °F 30.3 in WSW 5 mph 13 mph 69 % 0 in
15:42 56.8 °F 46.8 °F 30.3 in SW 7 mph 14 mph 69 % 0 in
15:47 57 °F 47.3 °F 30.3 in West 9 mph 14 mph 70 % 0 in
15:52 57 °F 47.3 °F 30.3 in SW 6 mph 14 mph 70 % 0 in
15:57 56.8 °F 47.1 °F 30.3 in West 6 mph 13 mph 70 % 0 in
16:02 56.7 °F 47.3 °F 30.3 in WSW 9 mph 13 mph 71 % 0 in
16:12 57 °F 47.3 °F 30.3 in SSW 7 mph 14 mph 70 % 0 in
16:17 56.8 °F 47.8 °F 30.3 in WNW 6 mph 15 mph 72 % 0 in
16:22 57 °F 48 °F 30.3 in WNW 11 mph 16 mph 72 % 0 in
16:32 56.8 °F 47.8 °F 30.3 in SW 6 mph 13 mph 72 % 0 in
16:37 56.8 °F 47.8 °F 30.3 in WSW 4 mph 12 mph 72 % 0 in
16:42 56.8 °F 47.8 °F 30.3 in SW 5 mph 12 mph 72 % 0 in
16:52 56.5 °F 48 °F 30.3 in West 8 mph 12 mph 73 % 0 in
16:57 56.5 °F 48.4 °F 30.3 in West 5 mph 12 mph 74 % 0 in
17:02 56.5 °F 48 °F 30.3 in WSW 6 mph 12 mph 73 % 0 in
17:12 56.5 °F 48.4 °F 30.3 in West 4 mph 10 mph 74 % 0 in
17:17 56.3 °F 48.2 °F 30.3 in WSW 5 mph 9 mph 74 % 0 in
17:22 56.3 °F 48.6 °F 30.3 in WNW 1 mph 10 mph 75 % 0 in
17:27 56.1 °F 48 °F 30.3 in WNW 3 mph 10 mph 74 % 0 in
17:32 56.1 °F 48.4 °F 30.3 in WSW 4 mph 10 mph 75 % 0 in
17:42 56.1 °F 48.4 °F 30.3 in WNW 2 mph 6 mph 75 % 0 in
17:47 56.1 °F 48 °F 30.3 in WSW 2 mph 7 mph 74 % 0 in
17:52 56.1 °F 48 °F 30.3 in WNW 2 mph 7 mph 74 % 0 in
17:57 56.1 °F 48.4 °F 30.3 in West 4 mph 8 mph 75 % 0 in
18:02 56.1 °F 48.4 °F 30.3 in WNW 3 mph 8 mph 75 % 0 in
18:07 55.9 °F 48.2 °F 30.3 in West 1 mph 8 mph 75 % 0 in
18:12 55.9 °F 48.6 °F 30.3 in WNW 2 mph 8 mph 76 % 0 in
18:17 55.9 °F 48.6 °F 30.3 in Calm   4 mph 76 % 0 in
18:27 55.8 °F 48.4 °F 30.3 in Calm   3 mph 76 % 0 in
18:32 55.8 °F 48.7 °F 30.3 in Calm   3 mph 77 % 0 in
18:37 55.6 °F 48.6 °F 30.3 in Calm   3 mph 77 % 0 in
18:42 55.4 °F 48.4 °F 30.3 in Calm   3 mph 77 % 0 in
18:47 55.2 °F 48.6 °F 30.3 in West 1 mph 2 mph 78 % 0 in
18:52 55.2 °F 48.7 °F 30.3 in West 1 mph 2 mph 79 % 0 in
18:57 55.2 °F 48.7 °F 30.3 in West 1 mph 2 mph 79 % 0 in
19:02 55 °F 48.6 °F 30.3 in WSW 2 mph 2 mph 79 % 0 in
19:12 55.2 °F 48.7 °F 30.3 in WNW 2 mph 4 mph 79 % 0 in
19:17 55 °F 48.6 °F 30.3 in West 2 mph 4 mph 79 % 0 in
19:22 55 °F 48.6 °F 30.3 in West 3 mph 4 mph 79 % 0 in
19:27 55 °F 48.6 °F 30.3 in WNW 2 mph 5 mph 79 % 0 in
19:32 55 °F 48.9 °F 30.3 in WNW 2 mph 5 mph 80 % 0 in
19:37 55 °F 48.9 °F 30.3 in WNW 1 mph 4 mph 80 % 0 in
19:42 54.9 °F 48.7 °F 30.3 in Calm   3 mph 80 % 0 in
19:52 54.9 °F 48.7 °F 30.3 in Calm   2 mph 80 % 0 in
19:57 54.9 °F 49.1 °F 30.3 in WNW 2 mph 5 mph 81 % 0 in
20:02 54.7 °F 48.9 °F 30.3 in WNW 4 mph 6 mph 81 % 0 in
20:07 54.7 °F 48.9 °F 30.3 in WNW 5 mph 6 mph 81 % 0 in
20:12 54.7 °F 49.3 °F 30.4 in West 2 mph 6 mph 82 % 0 in
20:17 54.5 °F 49.1 °F 30.4 in WNW 2 mph 6 mph 82 % 0 in
20:22 54.3 °F 49.3 °F 30.4 in WNW 2 mph 6 mph 83 % 0 in
20:27 54.3 °F 49.3 °F 30.4 in WNW 3 mph 4 mph 83 % 0 in
20:32 54.1 °F 49.5 °F 30.4 in WNW 2 mph 4 mph 84 % 0 in
20:37 54.1 °F 49.5 °F 30.4 in NW 2 mph 5 mph 84 % 0 in
20:42 54.1 °F 49.5 °F 30.4 in West 2 mph 5 mph 84 % 0 in
20:47 54 °F 49.6 °F 30.4 in West 2 mph 5 mph 85 % 0 in
20:52 54 °F 49.6 °F 30.4 in West 1 mph 5 mph 85 % 0 in
20:57 54 °F 49.6 °F 30.4 in Calm   4 mph 85 % 0 in
21:02 54 °F 49.6 °F 30.4 in Calm   4 mph 85 % 0 in
21:12 53.8 °F 49.5 °F 30.4 in Calm   2 mph 85 % 0 in
21:17 53.8 °F 49.6 °F 30.4 in Calm   2 mph 86 % 0 in
21:22 53.8 °F 49.6 °F 30.4 in Calm   1 mph 86 % 0 in
21:27 53.8 °F 49.6 °F 30.4 in Calm     86 % 0 in
21:32 53.6 °F 49.5 °F 30.4 in Calm     86 % 0 in
21:37 53.6 °F 49.5 °F 30.4 in Calm     86 % 0 in
21:42 53.6 °F 49.5 °F 30.3 in Calm     86 % 0 in
21:47 53.4 °F 49.3 °F 30.3 in Calm     86 % 0 in
21:52 53.4 °F 49.3 °F 30.4 in Calm     86 % 0 in
21:57 53.4 °F 49.6 °F 30.4 in Calm     87 % 0 in
22:02 53.4 °F 49.6 °F 30.4 in Calm     87 % 0 in
22:12 53.4 °F 49.6 °F 30.4 in WSW 2 mph 2 mph 87 % 0 in
22:17 53.4 °F 49.6 °F 30.4 in WNW 1 mph 3 mph 87 % 0 in
22:22 53.4 °F 49.6 °F 30.4 in Calm   3 mph 87 % 0 in
22:27 53.4 °F 49.6 °F 30.3 in West 1 mph 3 mph 87 % 0 in
22:32 53.4 °F 49.6 °F 30.3 in WSW 2 mph 2 mph 87 % 0 in
22:42 53.2 °F 49.8 °F 30.3 in Calm   2 mph 88 % 0 in
22:47 53.2 °F 49.8 °F 30.3 in Calm   2 mph 88 % 0 in
22:52 53.2 °F 49.8 °F 30.3 in Calm   1 mph 88 % 0 in
22:57 53.1 °F 49.6 °F 30.3 in WSW 1 mph 1 mph 88 % 0 in
23:02 53.1 °F 49.6 °F 30.3 in Calm   3 mph 88 % 0 in
23:12 53.1 °F 49.6 °F 30.3 in Calm   3 mph 88 % 0 in
23:17 53.1 °F 49.8 °F 30.3 in Calm   2 mph 89 % 0 in
23:22 53.1 °F 49.6 °F 30.3 in Calm   2 mph 88 % 0 in
23:27 52.9 °F 49.6 °F 30.3 in Calm   1 mph 89 % 0 in
23:32 52.9 °F 49.6 °F 30.3 in Calm   1 mph 89 % 0 in
23:37 52.7 °F 49.5 °F 30.3 in Calm   1 mph 89 % 0 in
23:42 52.5 °F 49.5 °F 30.3 in Calm   1 mph 89 % 0 in
23:47 52.5 °F 49.5 °F 30.3 in Calm   1 mph 89 % 0 in
23:52 52.5 °F 49.5 °F 30.3 in Calm     89 % 0 in
23:57 52.3 °F 49.5 °F 30.3 in Calm     90 % 0 in
Meteo18
Compliments of Weather Underground - 4 mb

Script developed by  Jim McMurry - jmcmurry@mwt.net Adapted for the template by  Wim van der Kuil - Leuven-Template.eu

You find our weather info also at:

European Weather Network

Weather Underground

Equipment we use:

Weather-station
Davis Vue

Weather-program
Meteohub

Weather-server
Raspberry PI 2 B+

Provider
1 and 1

Davis Vue

Meteohub

Raspberry PI 2 B+

1 and 1